createdAt,value
2018-02-25T00:00:51.761Z,-1.70
2018-02-25T00:03:19.326Z,-1.70
2018-02-25T00:05:46.833Z,-1.70
2018-02-25T00:08:14.309Z,-1.80
2018-02-25T00:10:42.995Z,-1.80
2018-02-25T00:13:10.507Z,-1.90
2018-02-25T00:15:38.064Z,-1.90
2018-02-25T00:18:06.037Z,-1.90
2018-02-25T00:20:33.601Z,-1.90
2018-02-25T00:23:01.117Z,-1.90
2018-02-25T00:25:28.626Z,-2.00
2018-02-25T00:27:56.192Z,-2.00
2018-02-25T00:30:23.671Z,-1.90
2018-02-25T00:32:51.421Z,-2.00
2018-02-25T00:35:18.957Z,-2.00
2018-02-25T00:37:47.207Z,-2.00
2018-02-25T00:40:14.926Z,-2.00
2018-02-25T00:42:42.398Z,-2.00
2018-02-25T00:45:09.883Z,-2.00
2018-02-25T00:47:37.394Z,-2.10
2018-02-25T00:50:05.639Z,-2.10
2018-02-25T00:52:33.161Z,-2.10
2018-02-25T00:55:00.751Z,-2.10
2018-02-25T00:57:28.288Z,-2.10
2018-02-25T00:59:55.797Z,-2.10
2018-02-25T01:02:23.523Z,-2.10
2018-02-25T01:04:50.996Z,-2.20
2018-02-25T01:07:18.476Z,-2.20
2018-02-25T01:09:45.978Z,-2.10
2018-02-25T01:12:14.341Z,-2.10
2018-02-25T01:14:41.817Z,-2.10
2018-02-25T01:17:10.074Z,-2.20
2018-02-25T01:19:37.550Z,-2.20
2018-02-25T01:22:05.157Z,-2.20
2018-02-25T01:24:32.986Z,-2.20
2018-02-25T01:27:00.501Z,-2.30
2018-02-25T01:29:28.051Z,-2.30
2018-02-25T01:31:55.616Z,-2.40
2018-02-25T01:34:23.129Z,-2.40
2018-02-25T01:36:50.606Z,-2.30
2018-02-25T01:39:18.100Z,-2.40
2018-02-25T01:41:45.607Z,-2.40
2018-02-25T01:44:13.078Z,-2.30
2018-02-25T01:46:40.696Z,-2.40
2018-02-25T01:49:08.206Z,-2.50
2018-02-25T01:51:35.732Z,-2.50
2018-02-25T01:54:03.451Z,-2.50
2018-02-25T01:56:30.979Z,-2.50
2018-02-25T01:58:58.450Z,-2.50
2018-02-25T02:01:26.242Z,-2.50
2018-02-25T02:03:53.718Z,-2.50
2018-02-25T02:06:21.974Z,-2.70
2018-02-25T02:08:49.584Z,-2.70
2018-02-25T02:11:17.101Z,-2.70
2018-02-25T02:13:44.576Z,-2.80
2018-02-25T02:16:12.384Z,-2.80
2018-02-25T02:18:39.945Z,-2.70
2018-02-25T02:21:07.512Z,-2.70
2018-02-25T02:23:35.281Z,-2.80
2018-02-25T02:26:02.770Z,-2.80
2018-02-25T02:28:30.309Z,-2.90
2018-02-25T02:30:57.973Z,-2.80
2018-02-25T02:33:25.537Z,-2.80
2018-02-25T02:35:53.048Z,-2.90
2018-02-25T02:38:20.768Z,-3.00
2018-02-25T02:40:48.300Z,-3.10
2018-02-25T02:43:16.739Z,-3.10
2018-02-25T02:45:44.582Z,-3.10
2018-02-25T02:48:12.087Z,-3.20
2018-02-25T02:50:39.717Z,-3.20
2018-02-25T02:53:07.590Z,-3.20
2018-02-25T02:55:35.099Z,-3.20
2018-02-25T02:58:02.608Z,-3.30
2018-02-25T03:00:30.243Z,-3.30
2018-02-25T03:02:58.531Z,-3.30
2018-02-25T03:05:26.771Z,-3.30
2018-02-25T03:07:54.270Z,-3.30
2018-02-25T03:10:22.574Z,-3.40
2018-02-25T03:12:50.086Z,-3.40
2018-02-25T03:15:18.008Z,-3.40
2018-02-25T03:17:45.577Z,-3.40
2018-02-25T03:20:13.161Z,-3.50
2018-02-25T03:22:40.864Z,-3.60
2018-02-25T03:25:08.379Z,-3.60
2018-02-25T03:27:35.852Z,-3.70
2018-02-25T03:30:03.608Z,-3.70
2018-02-25T03:32:31.127Z,-3.70
2018-02-25T03:34:58.599Z,-3.70
2018-02-25T03:37:26.858Z,-3.70
2018-02-25T03:39:54.375Z,-3.70
2018-02-25T03:42:21.891Z,-3.70
2018-02-25T03:44:49.585Z,-3.70
2018-02-25T03:47:17.859Z,-3.90
2018-02-25T03:49:46.164Z,-4.00
2018-02-25T03:52:13.692Z,-4.00
2018-02-25T03:54:41.202Z,-4.00
2018-02-25T03:57:08.746Z,-3.80
2018-02-25T03:59:36.511Z,-3.90
2018-02-25T04:02:04.027Z,-3.80
2018-02-25T04:04:31.494Z,-3.90
2018-02-25T04:06:59.063Z,-3.90
2018-02-25T04:09:26.570Z,-3.90
2018-02-25T04:11:54.047Z,-4.00
2018-02-25T04:14:21.899Z,-4.00
2018-02-25T04:16:49.415Z,-4.10
2018-02-25T04:19:16.944Z,-4.10
2018-02-25T04:21:44.692Z,-4.20
2018-02-25T04:24:12.359Z,-4.10
2018-02-25T04:26:39.923Z,-4.10
2018-02-25T04:29:07.414Z,-4.00
2018-02-25T04:31:34.890Z,-4.10
2018-02-25T04:34:02.407Z,-4.20
2018-02-25T04:36:29.984Z,-4.20
2018-02-25T04:38:57.539Z,-4.40
2018-02-25T04:41:25.013Z,-4.30
2018-02-25T04:43:52.672Z,-4.40
2018-02-25T04:46:20.295Z,-4.40
2018-02-25T04:48:47.897Z,-4.40
2018-02-25T04:51:15.403Z,-4.40
2018-02-25T04:53:42.878Z,-4.40
2018-02-25T04:56:10.351Z,-4.50
2018-02-25T04:58:37.953Z,-4.50
2018-02-25T05:01:05.460Z,-3.40
2018-02-25T05:03:32.963Z,-4.50
2018-02-25T05:06:01.460Z,-4.40
2018-02-25T05:08:28.925Z,-4.40
2018-02-25T05:10:56.394Z,-4.40
2018-02-25T05:13:24.056Z,-4.40
2018-02-25T05:15:51.531Z,-4.50
2018-02-25T05:18:19.034Z,-4.50
2018-02-25T05:20:46.567Z,-4.60
2018-02-25T05:23:14.080Z,-4.60
2018-02-25T05:25:42.389Z,-4.80
2018-02-25T05:28:10.248Z,-4.80
2018-02-25T05:30:37.778Z,-4.70
2018-02-25T05:33:05.385Z,-4.80
2018-02-25T05:35:33.122Z,-4.80
2018-02-25T05:38:01.371Z,-5.00
2018-02-25T05:40:28.879Z,-5.00
2018-02-25T05:42:57.130Z,-4.90
2018-02-25T05:45:24.606Z,-4.90
2018-02-25T05:47:53.673Z,-4.80
2018-02-25T05:50:21.208Z,-4.80
2018-02-25T05:52:48.758Z,-4.90
2018-02-25T05:55:16.326Z,-5.00
2018-02-25T05:57:43.961Z,-5.00
2018-02-25T06:00:12.268Z,-5.10
2018-02-25T06:02:39.750Z,-5.10
2018-02-25T06:05:07.251Z,-5.10
2018-02-25T06:07:35.506Z,-5.10
2018-02-25T06:10:02.982Z,-5.10
2018-02-25T06:12:30.512Z,-5.10
2018-02-25T06:14:58.031Z,-5.00
2018-02-25T06:17:25.556Z,-5.10
2018-02-25T06:19:53.057Z,-5.10
2018-02-25T06:22:20.656Z,-5.10
2018-02-25T06:24:48.135Z,-5.20
2018-02-25T06:27:15.755Z,-5.20
2018-02-25T06:29:43.996Z,-5.20
2018-02-25T06:32:11.470Z,-5.30
2018-02-25T06:34:39.187Z,-5.20
2018-02-25T06:37:06.673Z,-5.20
2018-02-25T06:39:34.218Z,-5.30
2018-02-25T06:42:02.397Z,-5.30
2018-02-25T06:44:29.954Z,-5.20
2018-02-25T06:46:57.428Z,-5.20
2018-02-25T06:49:25.342Z,-5.20
2018-02-25T06:51:52.850Z,-5.20
2018-02-25T06:54:21.075Z,-5.30
2018-02-25T06:56:48.619Z,-5.30
2018-02-25T06:59:16.135Z,-5.30
2018-02-25T07:01:44.378Z,-5.30
2018-02-25T07:04:12.070Z,-5.30
2018-02-25T07:06:39.587Z,-5.30
2018-02-25T07:09:07.129Z,-5.30
2018-02-25T07:11:34.859Z,-5.30
2018-02-25T07:14:02.362Z,-5.30
2018-02-25T07:16:29.884Z,-5.20
2018-02-25T07:18:57.488Z,-5.20
2018-02-25T07:21:25.011Z,-5.20
2018-02-25T07:23:52.527Z,-5.20
2018-02-25T07:26:20.108Z,-5.30
2018-02-25T07:28:48.366Z,-5.10
2018-02-25T07:31:15.891Z,-5.20
2018-02-25T07:33:43.796Z,-5.30
2018-02-25T07:36:11.270Z,-5.40
2018-02-25T07:38:38.787Z,-5.40
2018-02-25T07:41:06.463Z,-5.30
2018-02-25T07:43:34.771Z,-5.30
2018-02-25T07:46:02.247Z,-5.30
2018-02-25T07:48:29.958Z,-5.20
2018-02-25T07:50:57.467Z,-5.20
2018-02-25T07:53:24.973Z,-5.10
2018-02-25T07:55:52.515Z,-5.10
2018-02-25T07:58:19.959Z,-5.20
2018-02-25T08:00:47.463Z,-5.30
2018-02-25T08:03:15.046Z,-5.20
2018-02-25T08:05:43.326Z,-5.30
2018-02-25T08:08:11.603Z,-5.30
2018-02-25T08:10:39.110Z,-5.40
2018-02-25T08:13:06.586Z,-5.30
2018-02-25T08:15:34.107Z,-5.30
2018-02-25T08:18:01.607Z,-5.20
2018-02-25T08:20:29.083Z,-5.10
2018-02-25T08:22:56.582Z,-5.20
2018-02-25T08:25:24.895Z,-5.20
2018-02-25T08:27:52.419Z,-5.30
2018-02-25T08:30:19.906Z,-5.10
2018-02-25T08:32:47.683Z,-5.00
2018-02-25T08:35:15.247Z,-5.00
2018-02-25T08:37:42.823Z,-5.00
2018-02-25T08:40:10.345Z,-4.90
2018-02-25T08:42:38.581Z,-4.70
2018-02-25T08:45:06.053Z,-4.70
2018-02-25T08:47:33.686Z,-4.60
2018-02-25T08:50:01.175Z,-4.60
2018-02-25T08:52:28.834Z,-4.60
2018-02-25T08:54:56.479Z,-4.70
2018-02-25T08:57:23.964Z,-4.60
2018-02-25T08:59:51.500Z,-4.50
2018-02-25T09:02:19.062Z,-4.50
2018-02-25T09:04:46.542Z,-4.50
2018-02-25T09:07:14.022Z,-4.50
2018-02-25T09:09:41.934Z,-4.60
2018-02-25T09:12:10.184Z,-4.70
2018-02-25T09:14:37.707Z,-4.70
2018-02-25T09:17:05.433Z,-4.70
2018-02-25T09:19:32.951Z,-4.70
2018-02-25T09:22:00.507Z,-4.60
2018-02-25T09:24:28.368Z,-4.60
2018-02-25T09:26:55.845Z,-4.60
2018-02-25T09:29:23.323Z,-4.60
2018-02-25T09:31:50.856Z,-4.60
2018-02-25T09:34:18.334Z,-4.40
2018-02-25T09:36:45.845Z,-4.30
2018-02-25T09:39:13.350Z,-4.00
2018-02-25T09:41:40.866Z,-3.80
2018-02-25T09:44:08.601Z,-3.90
2018-02-25T09:49:10.711Z,-4.10
2018-02-25T09:51:38.398Z,-3.90
2018-02-25T09:54:05.925Z,-3.90
2018-02-25T09:56:33.402Z,-4.00
2018-02-25T09:59:01.025Z,-4.10
2018-02-25T10:01:28.537Z,-4.00
2018-02-25T10:03:56.014Z,-4.10
2018-02-25T10:06:23.514Z,-4.00
2018-02-25T10:08:51.177Z,-4.00
2018-02-25T10:11:18.650Z,-4.00
2018-02-25T10:13:46.154Z,-4.10
2018-02-25T10:16:13.635Z,-4.00
2018-02-25T10:18:41.924Z,-3.80
2018-02-25T10:21:10.391Z,-3.80
2018-02-25T10:23:37.866Z,-3.80
2018-02-25T10:26:06.139Z,-4.00
2018-02-25T10:28:34.560Z,-3.90
2018-02-25T10:31:02.056Z,-3.90
2018-02-25T10:33:29.602Z,-3.80
2018-02-25T10:35:57.306Z,-3.70
2018-02-25T10:38:24.823Z,-3.50
2018-02-25T10:40:52.298Z,-3.50
2018-02-25T10:43:19.798Z,-3.60
2018-02-25T10:45:47.312Z,-3.90
2018-02-25T10:48:15.515Z,-3.90
2018-02-25T10:50:43.015Z,-3.80
2018-02-25T10:53:11.340Z,-3.60
2018-02-25T10:55:38.861Z,-3.60
2018-02-25T10:58:07.171Z,-3.80
2018-02-25T11:00:36.534Z,-3.80
2018-02-25T11:03:04.823Z,-3.80
2018-02-25T11:05:33.102Z,-3.60
2018-02-25T11:08:01.392Z,-3.50
2018-02-25T11:10:29.690Z,-3.50
2018-02-25T11:12:57.259Z,-3.50
2018-02-25T11:15:24.797Z,-3.30
2018-02-25T11:17:53.088Z,-3.30
2018-02-25T11:20:20.960Z,-3.30
2018-02-25T11:22:48.482Z,-3.20
2018-02-25T11:25:16.756Z,-3.20
2018-02-25T11:27:44.831Z,-3.20
2018-02-25T11:30:15.321Z,-3.20
2018-02-25T11:32:42.879Z,-3.10
2018-02-25T11:35:10.648Z,-2.90
2018-02-25T11:37:38.125Z,-3.00
2018-02-25T11:40:05.611Z,-3.00
2018-02-25T11:42:33.279Z,-2.80
2018-02-25T11:45:00.757Z,-2.50
2018-02-25T11:47:28.227Z,-2.60
2018-02-25T11:49:56.482Z,-2.60
2018-02-25T11:52:23.968Z,-2.60
2018-02-25T11:54:51.881Z,-2.60
2018-02-25T11:57:19.522Z,-2.30
2018-02-25T11:59:47.807Z,-2.50
2018-02-25T12:02:16.495Z,-2.40
2018-02-25T12:04:45.048Z,-2.70
2018-02-25T12:07:12.530Z,-2.70
2018-02-25T12:09:40.850Z,-2.80
2018-02-25T12:12:08.477Z,-2.80
2018-02-25T12:14:36.763Z,-2.60
2018-02-25T12:17:05.357Z,-2.70
2018-02-25T12:19:33.992Z,-2.70
2018-02-25T12:22:01.519Z,-2.70
2018-02-25T12:24:29.039Z,-2.70
2018-02-25T12:26:56.538Z,-2.50
2018-02-25T12:29:24.046Z,-2.50
2018-02-25T12:31:51.792Z,-2.50
2018-02-25T12:34:19.294Z,-2.40
2018-02-25T12:36:46.922Z,-2.30
2018-02-25T12:39:14.406Z,-2.30
2018-02-25T12:41:42.335Z,-2.20
2018-02-25T12:44:09.915Z,-1.70
2018-02-25T12:46:37.645Z,-1.10
2018-02-25T12:49:06.372Z,-1.20
2018-02-25T12:51:33.904Z,-1.20
2018-02-25T12:54:01.407Z,-1.80
2018-02-25T12:56:29.550Z,-1.90
2018-02-25T12:58:57.856Z,-1.50
2018-02-25T13:01:25.416Z,-1.60
2018-02-25T13:03:52.923Z,-1.30
2018-02-25T13:06:20.448Z,-1.10
2018-02-25T13:08:48.016Z,-1.00
2018-02-25T13:11:16.141Z,-1.20
2018-02-25T13:13:43.638Z,-1.60
2018-02-25T13:16:11.193Z,-1.90
2018-02-25T13:18:40.596Z,-2.00
2018-02-25T13:21:08.906Z,-2.00
2018-02-25T13:23:36.442Z,-2.00
2018-02-25T13:26:04.710Z,-2.00
2018-02-25T13:28:32.998Z,-2.10
2018-02-25T13:31:01.294Z,-2.10
2018-02-25T13:33:28.877Z,-2.10
2018-02-25T13:35:56.515Z,-2.10
2018-02-25T13:38:24.048Z,-2.10
2018-02-25T13:40:52.352Z,-2.00
2018-02-25T13:43:20.611Z,-2.00
2018-02-25T13:45:48.224Z,-1.90
2018-02-25T13:48:15.961Z,-1.90
2018-02-25T13:50:44.206Z,-1.90
2018-02-25T13:53:11.682Z,-1.90
2018-02-25T13:55:39.224Z,-1.80
2018-02-25T13:58:06.710Z,-1.80
2018-02-25T14:00:34.322Z,-1.90
2018-02-25T14:03:02.110Z,-1.90
2018-02-25T14:05:29.638Z,-1.90
2018-02-25T14:07:57.168Z,-1.90
2018-02-25T14:10:24.869Z,-1.80
2018-02-25T14:12:52.392Z,-1.60
2018-02-25T14:15:19.911Z,-1.40
2018-02-25T14:17:47.507Z,-1.40
2018-02-25T14:20:15.080Z,-1.30
2018-02-25T14:22:42.623Z,-1.30
2018-02-25T14:25:10.378Z,-1.30
2018-02-25T14:27:37.914Z,-1.50
2018-02-25T14:30:06.586Z,-1.30
2018-02-25T14:32:34.164Z,-1.30
2018-02-25T14:35:01.729Z,-1.20
2018-02-25T14:37:30.051Z,-0.80
2018-02-25T14:39:57.902Z,-0.80
2018-02-25T14:42:25.456Z,-0.60
2018-02-25T14:44:53.028Z,-0.40
2018-02-25T14:47:20.691Z,-0.40
2018-02-25T14:49:48.224Z,-0.20
2018-02-25T14:52:15.706Z,-0.50
2018-02-25T14:54:44.210Z,-0.40
2018-02-25T14:57:11.720Z,-0.40
2018-02-25T14:59:39.354Z,-0.60
2018-02-25T15:02:06.962Z,-0.40
2018-02-25T15:04:35.326Z,0.10
2018-02-25T15:07:02.833Z,0.00
2018-02-25T15:09:30.700Z,0.20
2018-02-25T15:11:58.233Z,0.30
2018-02-25T15:14:25.831Z,0.20
2018-02-25T15:16:53.642Z,0.10
2018-02-25T15:19:21.256Z,0.20
2018-02-25T15:21:48.803Z,0.40
2018-02-25T15:24:16.541Z,0.60
2018-02-25T15:26:44.179Z,0.60
2018-02-25T15:29:11.741Z,0.80
2018-02-25T15:31:39.464Z,0.80
2018-02-25T15:34:07.863Z,-0.20
2018-02-25T15:36:37.661Z,-0.40
2018-02-25T15:39:05.483Z,-0.40
2018-02-25T15:41:32.992Z,-0.40
2018-02-25T15:44:00.467Z,0.20
2018-02-25T15:46:28.191Z,0.40
2018-02-25T15:48:55.843Z,0.80
2018-02-25T15:51:23.428Z,1.00
2018-02-25T15:53:51.433Z,0.90
2018-02-25T15:56:19.781Z,1.00
2018-02-25T15:58:47.376Z,1.00
2018-02-25T16:01:14.947Z,1.10
2018-02-25T16:03:43.255Z,0.60
2018-02-25T16:06:10.853Z,0.50
2018-02-25T16:08:38.453Z,0.70
2018-02-25T16:11:06.213Z,0.40
2018-02-25T16:13:33.686Z,-0.10
2018-02-25T16:16:01.290Z,-0.30
2018-02-25T16:18:28.800Z,-0.30
2018-02-25T16:20:56.273Z,-0.20
2018-02-25T16:23:23.808Z,-0.60
2018-02-25T16:25:51.315Z,-0.60
2018-02-25T16:28:19.674Z,-0.30
2018-02-25T16:30:47.292Z,-0.30
2018-02-25T16:33:14.801Z,-0.10
2018-02-25T16:35:42.315Z,-0.30
2018-02-25T16:38:10.080Z,-0.60
2018-02-25T16:40:37.571Z,-0.90
2018-02-25T16:43:05.092Z,-1.30
2018-02-25T16:45:33.692Z,-2.10
2018-02-25T16:48:01.212Z,-2.10
2018-02-25T16:50:28.690Z,-2.40
2018-02-25T16:52:57.203Z,-2.70
2018-02-25T16:55:24.710Z,-2.70
2018-02-25T16:57:52.186Z,-2.70
2018-02-25T17:00:19.879Z,-2.80
2018-02-25T17:02:48.154Z,-3.00
2018-02-25T17:05:16.437Z,-3.10
2018-02-25T17:07:44.732Z,-3.20
2018-02-25T17:10:13.010Z,-3.20
2018-02-25T17:12:40.486Z,-3.30
2018-02-25T17:15:07.985Z,-3.30
2018-02-25T17:17:35.501Z,-3.30
2018-02-25T17:20:02.966Z,-3.40
2018-02-25T17:22:30.469Z,-3.40
2018-02-25T17:24:57.941Z,-3.50
2018-02-25T17:27:25.460Z,-3.50
2018-02-25T17:29:53.124Z,-3.50
2018-02-25T17:32:20.666Z,-3.50
2018-02-25T17:34:48.160Z,-3.50
2018-02-25T17:37:16.012Z,-3.60
2018-02-25T17:39:43.482Z,-3.60
2018-02-25T17:42:10.967Z,-3.60
2018-02-25T17:44:38.810Z,-3.70
2018-02-25T17:47:06.310Z,-3.70
2018-02-25T17:49:33.798Z,-3.70
2018-02-25T17:52:01.462Z,-3.70
2018-02-25T17:54:28.954Z,-3.80
2018-02-25T17:56:56.495Z,-3.80
2018-02-25T17:59:24.023Z,-3.80
2018-02-25T18:01:52.198Z,-3.80
2018-02-25T18:04:19.646Z,-3.80
2018-02-25T18:06:47.142Z,-3.90
2018-02-25T18:09:14.627Z,-3.80
2018-02-25T18:11:42.867Z,-3.80
2018-02-25T18:14:10.574Z,-3.90
2018-02-25T18:16:38.070Z,-3.90
2018-02-25T18:19:05.580Z,-4.00
2018-02-25T18:21:33.300Z,-4.00
2018-02-25T18:24:00.789Z,-4.00
2018-02-25T18:26:28.295Z,-4.10
2018-02-25T18:28:56.908Z,-4.10
2018-02-25T18:31:24.420Z,-4.10
2018-02-25T18:33:51.886Z,-4.10
2018-02-25T18:36:19.423Z,-4.20
2018-02-25T18:38:46.967Z,-4.20
2018-02-25T18:41:14.479Z,-4.20
2018-02-25T18:43:41.985Z,-4.20
2018-02-25T18:46:09.502Z,-4.20
2018-02-25T18:48:36.974Z,-4.10
2018-02-25T18:51:04.486Z,-4.20
2018-02-25T18:53:32.006Z,-4.20
2018-02-25T18:56:00.316Z,-4.30
2018-02-25T18:58:27.852Z,-4.30
2018-02-25T19:00:56.134Z,-4.30
2018-02-25T19:03:24.411Z,-4.20
2018-02-25T19:05:52.104Z,-4.30
2018-02-25T19:08:19.574Z,-4.20
2018-02-25T19:10:47.081Z,-4.20
2018-02-25T19:13:14.625Z,-4.30
2018-02-25T19:15:42.158Z,-4.40
2018-02-25T19:18:09.667Z,-4.30
2018-02-25T19:20:37.400Z,-4.30
2018-02-25T19:23:04.932Z,-4.30
2018-02-25T19:25:33.233Z,-4.40
2018-02-25T19:28:00.774Z,-4.50
2018-02-25T19:30:29.020Z,-4.30
2018-02-25T19:32:56.499Z,-4.40
2018-02-25T19:35:24.790Z,-4.40
2018-02-25T19:41:03.034Z,-4.50
2018-02-25T19:43:30.507Z,-4.50
2018-02-25T19:45:57.981Z,-4.50
2018-02-25T19:48:25.824Z,-4.50
2018-02-25T19:50:53.422Z,-4.60
2018-02-25T19:53:20.909Z,-4.50
2018-02-25T19:55:48.624Z,-4.50
2018-02-25T19:58:16.103Z,-4.50
2018-02-25T20:00:43.574Z,-4.50
2018-02-25T20:03:11.119Z,-4.60
2018-02-25T20:05:38.630Z,-4.60
2018-02-25T20:08:06.161Z,-4.60
2018-02-25T20:10:33.900Z,-4.60
2018-02-25T20:13:02.438Z,-4.60
2018-02-25T20:15:29.918Z,-4.70
2018-02-25T20:17:57.547Z,-4.70
2018-02-25T20:20:25.024Z,-4.60
2018-02-25T20:22:52.494Z,-4.60
2018-02-25T20:25:19.994Z,-4.60
2018-02-25T20:27:47.473Z,-4.70
2018-02-25T20:30:14.947Z,-4.70
2018-02-25T20:32:42.588Z,-4.70
2018-02-25T20:35:10.099Z,-4.70
2018-02-25T20:37:37.607Z,-4.70
2018-02-25T20:40:06.996Z,-4.80
2018-02-25T20:42:35.251Z,-4.80
2018-02-25T20:45:02.796Z,-4.80
2018-02-25T20:47:30.380Z,-4.80
2018-02-25T20:49:57.895Z,-4.80
2018-02-25T20:52:25.438Z,-4.90
2018-02-25T20:54:53.744Z,-5.00
2018-02-25T20:57:21.762Z,-4.90
2018-02-25T20:59:49.272Z,-4.90
2018-02-25T21:02:16.813Z,-4.90
2018-02-25T21:04:45.065Z,-4.90
2018-02-25T21:07:12.552Z,-4.90
2018-02-25T21:09:40.822Z,-5.00
2018-02-25T21:12:08.298Z,-5.00
2018-02-25T21:14:36.566Z,-5.00
2018-02-25T21:17:04.114Z,-5.10
2018-02-25T21:19:32.586Z,-5.10
2018-02-25T21:22:00.055Z,-5.10
2018-02-25T21:24:27.603Z,-5.10
2018-02-25T21:26:55.085Z,-5.10
2018-02-25T21:29:22.559Z,-5.10
2018-02-25T21:31:50.066Z,-5.10
2018-02-25T21:34:17.542Z,-5.10
2018-02-25T21:36:45.115Z,-5.10
2018-02-25T21:39:12.667Z,-5.10
2018-02-25T21:41:40.140Z,-5.20
2018-02-25T21:44:07.613Z,-5.10
2018-02-25T21:46:35.127Z,-5.10
2018-02-25T21:49:03.419Z,-5.30
2018-02-25T21:51:30.890Z,-5.30
2018-02-25T21:53:58.408Z,-5.20
2018-02-25T21:56:31.738Z,-5.20
2018-02-25T21:59:05.142Z,-5.20
2018-02-25T22:01:38.408Z,-5.20
2018-02-25T22:04:06.665Z,-5.20
2018-02-25T22:06:34.180Z,-5.20
2018-02-25T22:09:02.581Z,-5.20
2018-02-25T22:11:30.220Z,-5.20
2018-02-25T22:13:57.726Z,-5.20
2018-02-25T22:16:25.279Z,-5.20
2018-02-25T22:18:52.819Z,-5.30
2018-02-25T22:21:20.297Z,-5.30
2018-02-25T22:23:47.854Z,-5.30
2018-02-25T22:26:15.384Z,-5.30
2018-02-25T22:28:43.829Z,-5.30
2018-02-25T22:31:12.175Z,-5.30
2018-02-25T22:33:39.687Z,-5.40
2018-02-25T22:36:07.187Z,-5.40
2018-02-25T22:38:34.732Z,-5.40
2018-02-25T22:41:02.963Z,-5.40
2018-02-25T22:43:30.446Z,-5.40
2018-02-25T22:45:57.955Z,-5.30
2018-02-25T22:48:25.429Z,-5.30
2018-02-25T22:50:52.910Z,-5.30
2018-02-25T22:53:20.419Z,-5.30
2018-02-25T22:55:48.731Z,-5.40
2018-02-25T22:58:16.243Z,-5.40
2018-02-25T23:00:43.751Z,-5.40
2018-02-25T23:03:11.226Z,-5.40
2018-02-25T23:05:38.710Z,-5.30
2018-02-25T23:08:06.252Z,-5.40
2018-02-25T23:10:33.730Z,-5.30
2018-02-25T23:13:01.239Z,-5.40
2018-02-25T23:15:29.508Z,-5.40
2018-02-25T23:17:56.987Z,-5.40
2018-02-25T23:20:25.274Z,-5.50
2018-02-25T23:22:53.564Z,-5.50
2018-02-25T23:25:21.138Z,-5.50
2018-02-25T23:27:48.640Z,-5.50
2018-02-25T23:30:16.143Z,-5.50
2018-02-25T23:32:44.390Z,-5.50
2018-02-25T23:35:11.882Z,-5.50
2018-02-25T23:37:40.127Z,-5.60
2018-02-25T23:40:07.606Z,-5.60
2018-02-25T23:42:35.206Z,-5.50
2018-02-25T23:45:02.674Z,-5.60
2018-02-25T23:47:30.167Z,-5.60
2018-02-25T23:49:57.669Z,-5.60
2018-02-25T23:52:25.897Z,-5.70
2018-02-25T23:54:53.411Z,-5.70
2018-02-25T23:57:21.686Z,-5.70
2018-02-25T23:59:49.972Z,-5.70
